Time;durP1;ratioP1;P1;durP2;ratioP2;P2;SDS_P1;SDS_P2;PMS_P1;PMS_P2;Temp;Humidity;BMP_temperature;BMP_pressure;BME280_temperature;BME280_humidity;BME280_pressure;Samples;Min_cycle;Max_cycle;Signal;HPM_P1;HPM_P2
2022/04/15 00:02:09;;;;;;;1.90;1.80;;;14.00;58.10;;;;;;5056955;28;20025;-64
2022/04/15 00:04:36;;;;;;;1.95;1.75;;;14.00;58.20;;;;;;5057252;28;20032;-64
2022/04/15 00:07:02;;;;;;;2.00;1.77;;;14.00;58.20;;;;;;5057002;28;20033;-65
2022/04/15 00:09:30;;;;;;;2.00;1.80;;;14.00;58.20;;;;;;5055716;28;20040;-64
2022/04/15 00:12:00;;;;;;;2.53;2.10;;;13.90;58.20;;;;;;5056635;28;20037;-64
2022/04/15 00:14:25;;;;;;;2.47;1.90;;;13.90;58.20;;;;;;5055449;28;20099;-65
2022/04/15 00:16:51;;;;;;;2.33;1.90;;;13.90;58.20;;;;;;5056691;28;20029;-65
2022/04/15 00:19:17;;;;;;;1.85;1.73;;;13.90;58.30;;;;;;5056496;28;20025;-64
2022/04/15 00:21:43;;;;;;;2.30;1.85;;;14.00;58.30;;;;;;5056609;28;20025;-65
2022/04/15 00:24:09;;;;;;;2.10;1.90;;;13.90;58.30;;;;;;5056364;28;20036;-65
2022/04/15 00:26:34;;;;;;;2.00;1.80;;;13.90;58.30;;;;;;5056505;28;20036;-65
2022/04/15 00:29:00;;;;;;;2.58;1.85;;;13.90;58.30;;;;;;5056165;28;20029;-65
2022/04/15 00:31:26;;;;;;;1.80;1.70;;;13.90;58.40;;;;;;5056441;28;20068;-65
2022/04/15 00:33:52;;;;;;;1.95;1.70;;;13.90;58.40;;;;;;5056404;28;20111;-66
2022/04/15 00:36:17;;;;;;;2.17;1.88;;;13.90;58.40;;;;;;5054870;28;20028;-64
2022/04/15 00:38:43;;;;;;;1.95;1.80;;;13.90;58.40;;;;;;5056002;28;20028;-65
2022/04/15 00:41:14;;;;;;;2.13;1.90;;;13.90;58.40;;;;;;5056198;28;20036;-65
2022/04/15 00:43:40;;;;;;;1.90;1.80;;;13.90;58.40;;;;;;5055832;28;20371;-65
2022/04/15 00:46:07;;;;;;;1.98;1.80;;;13.90;58.50;;;;;;5056032;28;20021;-65
2022/04/15 00:48:35;;;;;;;2.40;1.75;;;13.80;58.40;;;;;;5055772;28;20053;-65
2022/04/15 00:51:01;;;;;;;2.00;1.77;;;13.80;58.50;;;;;;5053993;28;20067;-65
2022/04/15 00:53:29;;;;;;;2.10;1.75;;;13.80;58.40;;;;;;5055810;28;20064;-65
2022/04/15 00:56:00;;;;;;;1.90;1.80;;;13.80;58.50;;;;;;5055583;28;20029;-64
2022/04/15 00:58:26;;;;;;;2.17;1.67;;;13.80;58.50;;;;;;5056151;28;20113;-65
2022/04/15 01:00:54;;;;;;;1.85;1.70;;;13.80;58.50;;;;;;5055664;28;20041;-65
2022/04/15 01:03:21;;;;;;;1.80;1.70;;;13.80;58.60;;;;;;5055738;28;20036;-65
2022/04/15 01:05:52;;;;;;;2.05;1.90;;;13.80;58.60;;;;;;5055772;28;20422;-65
2022/04/15 01:08:21;;;;;;;2.22;1.70;;;13.80;58.60;;;;;;5054467;28;20029;-66
2022/04/15 01:10:48;;;;;;;1.73;1.63;;;13.70;58.60;;;;;;5055538;28;20025;-65
2022/04/15 01:13:14;;;;;;;2.22;1.60;;;13.70;58.60;;;;;;5055735;28;20108;-65
2022/04/15 01:15:40;;;;;;;1.80;1.70;;;13.70;58.60;;;;;;5055305;28;20096;-66
2022/04/15 01:18:06;;;;;;;2.28;2.00;;;13.70;58.60;;;;;;5055566;28;20029;-65
2022/04/15 01:20:32;;;;;;;1.98;1.75;;;13.70;58.60;;;;;;5054150;28;20033;-66
2022/04/15 01:23:08;;;;;;;1.70;1.60;;;13.70;58.60;;;;;;5055152;28;20482;-65
2022/04/15 01:25:35;;;;;;;1.98;1.80;;;13.70;58.60;;;;;;5055355;28;20090;-65
2022/04/15 01:28:00;;;;;;;1.83;1.73;;;13.70;58.70;;;;;;5053945;28;20125;-65
2022/04/15 01:30:26;;;;;;;2.10;1.90;;;13.60;58.60;;;;;;5053795;28;20120;-64
2022/04/15 01:32:52;;;;;;;2.10;1.75;;;13.60;59.30;;;;;;5055417;28;20063;-64
2022/04/15 01:35:19;;;;;;;1.90;1.75;;;13.70;58.70;;;;;;5054947;28;20033;-65
2022/04/15 01:37:46;;;;;;;1.98;1.80;;;13.60;58.70;;;;;;5053733;28;20486;-64
2022/04/15 01:40:14;;;;;;;1.83;1.60;;;13.60;58.70;;;;;;5055109;28;20029;-65
2022/04/15 01:42:40;;;;;;;1.92;1.55;;;13.60;58.70;;;;;;5055064;28;20085;-64
2022/04/15 01:45:07;;;;;;;2.30;1.67;;;13.60;58.70;;;;;;5053578;28;20082;-65
2022/04/15 01:47:33;;;;;;;2.13;1.92;;;13.60;58.80;;;;;;5054825;28;20353;-65
2022/04/15 01:49:59;;;;;;;2.72;1.90;;;13.60;58.80;;;;;;5054595;28;20033;-65
2022/04/15 01:52:26;;;;;;;1.95;1.65;;;13.60;58.80;;;;;;5053599;28;20561;-65
2022/04/15 01:54:52;;;;;;;1.98;1.83;;;13.60;58.80;;;;;;5053562;28;20029;-65
2022/04/15 01:57:18;;;;;;;2.10;1.90;;;13.60;58.80;;;;;;5054790;28;20057;-65
2022/04/15 01:59:44;;;;;;;1.73;1.63;;;13.60;58.90;;;;;;5054568;28;20053;-65
2022/04/15 02:02:10;;;;;;;1.70;1.60;;;13.50;58.80;;;;;;5053620;28;20107;-65
2022/04/15 02:04:36;;;;;;;1.80;1.70;;;13.50;58.80;;;;;;5054909;28;20044;-65
2022/04/15 02:07:03;;;;;;;2.20;1.90;;;13.50;58.80;;;;;;5053238;28;20025;-65
2022/04/15 02:09:29;;;;;;;1.80;1.70;;;13.60;58.90;;;;;;5054514;28;20035;-65
2022/04/15 02:11:55;;;;;;;2.08;1.88;;;13.50;58.90;;;;;;5054250;28;20072;-65
2022/04/15 02:14:21;;;;;;;1.63;1.52;;;13.50;58.90;;;;;;5054364;28;20064;-65
2022/04/15 02:16:50;;;;;;;2.15;1.88;;;13.50;58.90;;;;;;5054196;28;20060;-65
2022/04/15 02:19:15;;;;;;;2.10;1.80;;;13.50;58.90;;;;;;5054282;28;20117;-65
2022/04/15 02:21:41;;;;;;;2.10;1.80;;;13.50;59.00;;;;;;5054324;28;20447;-65
2022/04/15 02:24:07;;;;;;;2.05;1.85;;;13.50;59.00;;;;;;5054205;28;20029;-65
2022/04/15 02:26:33;;;;;;;2.15;1.85;;;13.50;59.00;;;;;;5054244;28;20052;-65
2022/04/15 02:28:59;;;;;;;1.90;1.73;;;13.40;59.00;;;;;;5053912;28;20033;-65
2022/04/15 02:31:25;;;;;;;1.92;1.75;;;13.50;59.00;;;;;;5053911;28;20033;-66
2022/04/15 02:33:51;;;;;;;2.40;2.00;;;13.50;59.00;;;;;;5054295;28;20048;-65
2022/04/15 02:36:17;;;;;;;2.50;1.90;;;13.40;59.00;;;;;;5054113;28;20029;-65
2022/04/15 02:38:43;;;;;;;1.80;1.70;;;13.40;59.10;;;;;;5054344;28;20025;-65
2022/04/15 02:41:09;;;;;;;1.90;1.80;;;13.40;59.10;;;;;;5054027;28;20044;-65
2022/04/15 02:43:37;;;;;;;2.10;1.90;;;13.40;59.10;;;;;;5053850;28;20056;-65
2022/04/15 02:46:05;;;;;;;1.80;1.70;;;13.40;59.10;;;;;;5053670;28;20527;-65
2022/04/15 02:48:31;;;;;;;2.08;1.80;;;13.40;59.10;;;;;;5053893;28;20064;-65
2022/04/15 02:50:57;;;;;;;1.80;1.70;;;13.40;59.10;;;;;;5053733;28;20039;-66
2022/04/15 02:53:23;;;;;;;2.50;2.10;;;13.40;59.20;;;;;;5054157;28;20108;-66
2022/04/15 02:55:50;;;;;;;1.73;1.63;;;13.40;59.20;;;;;;5053716;28;20074;-65
2022/04/15 02:58:16;;;;;;;2.05;1.85;;;13.40;59.20;;;;;;5053548;28;20037;-66
2022/04/15 03:00:41;;;;;;;2.20;2.00;;;13.30;59.20;;;;;;5053605;28;20036;-65
2022/04/15 03:03:07;;;;;;;2.42;1.90;;;13.30;59.20;;;;;;5053369;28;20033;-65
2022/04/15 03:05:33;;;;;;;1.92;1.73;;;13.30;59.20;;;;;;5054136;28;20116;-65
2022/04/15 03:07:59;;;;;;;2.28;1.77;;;13.30;59.20;;;;;;5052315;28;20391;-65
2022/04/15 03:10:25;;;;;;;2.58;2.25;;;13.30;59.20;;;;;;5053800;28;20028;-65
2022/04/15 03:12:50;;;;;;;2.45;1.90;;;13.30;59.20;;;;;;5056594;28;20037;-66
2022/04/15 03:15:17;;;;;;;2.47;2.17;;;13.20;59.20;;;;;;5060089;28;20029;-65
2022/04/15 03:17:42;;;;;;;2.35;1.90;;;13.20;59.30;;;;;;5058887;28;20021;-65
2022/04/15 03:20:10;;;;;;;2.33;2.10;;;13.20;59.30;;;;;;5060158;28;20535;-65
2022/04/15 03:22:45;;;;;;;2.25;2.03;;;13.20;59.40;;;;;;5060241;28;20053;-65
2022/04/15 03:25:17;;;;;;;2.17;1.80;;;13.20;59.40;;;;;;5059043;28;20083;-65
2022/04/15 03:27:43;;;;;;;1.83;1.70;;;13.10;59.40;;;;;;5060074;28;20057;-65
2022/04/15 03:30:09;;;;;;;2.15;1.85;;;13.20;59.50;;;;;;5059892;28;20071;-65
2022/04/15 03:32:47;;;;;;;2.20;2.05;;;13.20;59.50;;;;;;5060073;28;20035;-65
2022/04/15 03:35:13;;;;;;;2.55;2.10;;;13.20;59.50;;;;;;5060149;28;20029;-65
2022/04/15 03:37:39;;;;;;;1.92;1.80;;;13.20;59.50;;;;;;5058595;28;20025;-65
2022/04/15 03:40:06;;;;;;;2.25;2.00;;;13.20;59.50;;;;;;5059867;28;20029;-65
2022/04/15 03:42:41;;;;;;;2.13;1.95;;;13.20;59.50;;;;;;5059581;28;20083;-65
2022/04/15 03:45:07;;;;;;;2.33;1.95;;;13.20;59.50;;;;;;5060398;28;20028;-65
2022/04/15 03:47:32;;;;;;;2.40;2.20;;;13.20;59.50;;;;;;5059730;28;20048;-65
2022/04/15 03:49:58;;;;;;;2.90;2.33;;;13.20;59.50;;;;;;5059784;28;20410;-66
2022/04/15 03:52:24;;;;;;;2.20;2.00;;;13.20;59.50;;;;;;5059884;28;20451;-66
2022/04/15 03:54:49;;;;;;;2.25;1.90;;;13.30;59.50;;;;;;5059630;28;20028;-65
2022/04/15 03:57:15;;;;;;;2.30;2.05;;;13.30;59.40;;;;;;5059778;28;20033;-66
2022/04/15 03:59:41;;;;;;;2.80;2.05;;;13.30;59.40;;;;;;5059866;28;20021;-65
2022/04/15 04:02:06;;;;;;;2.42;2.00;;;13.30;59.40;;;;;;5059805;28;20032;-65
2022/04/15 04:04:32;;;;;;;2.78;2.30;;;13.30;59.30;;;;;;5058408;28;20033;-65
2022/04/15 04:06:58;;;;;;;2.35;2.00;;;13.40;59.40;;;;;;5059693;28;20032;-65
2022/04/15 04:09:23;;;;;;;2.75;1.92;;;13.40;59.40;;;;;;5059593;28;20025;-65
2022/04/15 04:11:49;;;;;;;2.33;1.90;;;13.40;59.30;;;;;;5059358;28;20035;-64
2022/04/15 04:14:14;;;;;;;3.08;2.20;;;13.40;59.30;;;;;;5059648;28;20040;-64
2022/04/15 04:16:40;;;;;;;2.47;2.17;;;13.40;59.20;;;;;;5059765;28;20021;-64
2022/04/15 04:19:06;;;;;;;2.38;2.05;;;13.40;59.20;;;;;;5059820;28;20028;-65
2022/04/15 04:21:33;;;;;;;2.88;2.40;;;13.50;59.20;;;;;;5059548;28;20029;-65
2022/04/15 04:23:59;;;;;;;2.85;2.40;;;13.50;59.20;;;;;;5057622;28;20486;-65
2022/04/15 04:26:24;;;;;;;2.60;1.90;;;13.50;59.20;;;;;;5056430;28;20033;-65
2022/04/15 04:28:50;;;;;;;2.88;2.20;;;13.50;59.20;;;;;;5056388;28;20062;-65
2022/04/15 04:31:17;;;;;;;2.63;2.00;;;13.50;59.20;;;;;;5056062;28;20332;-65
2022/04/15 04:33:43;;;;;;;2.60;2.10;;;13.50;59.10;;;;;;5054986;28;20095;-65
2022/04/15 04:36:08;;;;;;;3.42;2.50;;;13.50;59.10;;;;;;5056080;28;20029;-65
2022/04/15 04:38:34;;;;;;;2.83;2.00;;;13.50;59.10;;;;;;5054682;28;20033;-65
2022/04/15 04:41:00;;;;;;;3.60;2.00;;;13.50;59.70;;;;;;5055834;28;20032;-65
2022/04/15 04:43:25;;;;;;;3.35;2.10;;;13.50;59.10;;;;;;5056045;28;20374;-66
2022/04/15 04:45:51;;;;;;;2.72;2.20;;;13.60;59.10;;;;;;5056021;28;20032;-66
2022/04/15 04:48:17;;;;;;;2.67;2.03;;;13.60;59.10;;;;;;5056272;28;20498;-66
2022/04/15 04:50:45;;;;;;;2.47;2.10;;;13.60;59.10;;;;;;5056027;28;20035;-65
2022/04/15 04:53:11;;;;;;;2.40;2.13;;;13.60;59.00;;;;;;5055861;28;20480;-66
2022/04/15 04:55:38;;;;;;;2.80;2.20;;;13.60;59.10;;;;;;5055659;28;20033;-65
2022/04/15 04:58:04;;;;;;;3.35;2.35;;;13.60;59.00;;;;;;5055805;28;20084;-65
2022/04/15 05:00:29;;;;;;;2.92;2.25;;;13.70;59.00;;;;;;5055721;28;20086;-65
2022/04/15 05:02:55;;;;;;;3.22;2.33;;;13.60;59.00;;;;;;5055755;28;20031;-65
2022/04/15 05:05:21;;;;;;;2.85;2.13;;;13.70;59.00;;;;;;5055893;28;20056;-65
2022/04/15 05:07:46;;;;;;;2.80;2.40;;;13.70;59.00;;;;;;5055746;28;20454;-64
2022/04/15 05:10:12;;;;;;;2.65;2.20;;;13.70;59.00;;;;;;5055052;28;20033;-64
2022/04/15 05:12:38;;;;;;;3.25;2.40;;;13.70;58.90;;;;;;5055829;28;20053;-64
2022/04/15 05:15:04;;;;;;;3.35;2.00;;;13.70;58.90;;;;;;5055202;28;20456;-65
2022/04/15 05:17:29;;;;;;;3.88;2.30;;;13.70;58.90;;;;;;5055333;28;20032;-64
2022/04/15 05:19:55;;;;;;;3.83;2.47;;;13.80;58.90;;;;;;5055239;28;20162;-64
2022/04/15 05:22:23;;;;;;;2.92;2.30;;;13.80;58.90;;;;;;5055251;28;20372;-64
2022/04/15 05:24:49;;;;;;;3.45;1.98;;;13.80;58.90;;;;;;5053826;28;20482;-64
2022/04/15 05:27:15;;;;;;;3.65;2.50;;;13.80;58.90;;;;;;5055085;28;20021;-65
2022/04/15 05:29:40;;;;;;;3.30;2.35;;;13.80;58.90;;;;;;5053888;28;20429;-64
2022/04/15 05:32:06;;;;;;;4.32;2.30;;;13.80;58.80;;;;;;5055360;28;20051;-63
2022/04/15 05:34:32;;;;;;;3.38;2.42;;;13.80;58.80;;;;;;5054743;28;20104;-63
2022/04/15 05:36:57;;;;;;;3.30;2.47;;;13.80;58.80;;;;;;5053769;28;20066;-64
2022/04/15 05:39:23;;;;;;;3.72;2.38;;;13.90;58.80;;;;;;5054670;28;20138;-63
2022/04/15 05:41:49;;;;;;;2.85;2.22;;;13.90;58.80;;;;;;5054949;28;20040;-65
2022/04/15 05:44:16;;;;;;;2.97;2.40;;;13.90;58.80;;;;;;5054823;28;20033;-64
2022/04/15 05:46:42;;;;;;;2.80;2.22;;;13.90;58.80;;;;;;5054680;28;20096;-64
2022/04/15 05:49:16;;;;;;;3.00;2.20;;;13.90;58.80;;;;;;5053277;28;20408;-64
2022/04/15 05:51:42;;;;;;;2.87;2.30;;;14.00;58.80;;;;;;5054432;28;20427;-65
2022/04/15 05:54:08;;;;;;;3.67;2.58;;;14.00;58.80;;;;;;5054699;28;20025;-63
2022/04/15 05:56:34;;;;;;;2.85;2.35;;;14.00;58.80;;;;;;5053479;28;20033;-63
2022/04/15 05:58:59;;;;;;;2.85;2.20;;;14.00;58.80;;;;;;5054581;28;20446;-63
2022/04/15 06:01:25;;;;;;;3.58;2.40;;;14.00;58.70;;;;;;5054438;28;20064;-63
2022/04/15 06:03:51;;;;;;;2.53;2.08;;;14.00;58.70;;;;;;5054513;28;20529;-64
2022/04/15 06:06:16;;;;;;;3.22;2.40;;;14.10;58.80;;;;;;5054100;28;20029;-64
2022/04/15 06:08:42;;;;;;;3.55;2.53;;;14.10;58.70;;;;;;5054766;28;20090;-64
2022/04/15 06:11:08;;;;;;;3.38;2.42;;;14.10;58.60;;;;;;5054445;28;20037;-64
2022/04/15 06:13:34;;;;;;;3.05;2.45;;;14.10;58.60;;;;;;5054530;28;20039;-63
2022/04/15 06:16:00;;;;;;;3.05;2.40;;;14.10;58.60;;;;;;5054414;28;20029;-63
2022/04/15 06:18:34;;;;;;;3.17;2.30;;;14.20;58.60;;;;;;5054309;28;20312;-65
2022/04/15 06:21:00;;;;;;;3.47;2.28;;;14.10;58.50;;;;;;5052754;28;20459;-63
2022/04/15 06:23:26;;;;;;;2.28;2.00;;;14.20;58.50;;;;;;5054149;28;20075;-63
2022/04/15 06:25:52;;;;;;;3.55;2.58;;;14.20;58.50;;;;;;5053859;28;20033;-65
2022/04/15 06:28:21;;;;;;;2.70;2.13;;;14.20;58.50;;;;;;5054161;28;20032;-63
2022/04/15 06:30:47;;;;;;;2.47;2.28;;;14.20;58.40;;;;;;5053700;28;20069;-63
2022/04/15 06:33:15;;;;;;;3.20;2.17;;;14.30;58.50;;;;;;5053960;28;20022;-63
2022/04/15 06:35:41;;;;;;;2.47;2.28;;;14.30;58.50;;;;;;5053981;28;20021;-63
2022/04/15 06:38:06;;;;;;;3.10;2.20;;;14.30;58.40;;;;;;5053947;28;20032;-63
2022/04/15 06:40:32;;;;;;;2.55;2.15;;;14.30;58.50;;;;;;5053537;28;20043;-64
2022/04/15 06:42:58;;;;;;;2.88;2.03;;;14.30;58.40;;;;;;5053500;28;20029;-63
2022/04/15 06:45:24;;;;;;;2.78;1.95;;;14.30;58.40;;;;;;5053770;28;20057;-63
2022/04/15 06:47:50;;;;;;;3.00;2.20;;;14.30;58.40;;;;;;5053122;28;20045;-63
2022/04/15 06:50:16;;;;;;;2.55;2.22;;;14.40;58.50;;;;;;5053460;28;20455;-63
2022/04/15 06:52:41;;;;;;;2.47;2.10;;;14.40;58.40;;;;;;5036329;28;20039;-63
2022/04/15 06:55:07;;;;;;;2.40;2.03;;;14.40;58.40;;;;;;5053648;28;20449;-63
2022/04/15 06:57:33;;;;;;;2.40;2.00;;;14.40;58.40;;;;;;5052541;28;20025;-63
2022/04/15 06:59:59;;;;;;;2.65;2.25;;;14.40;58.30;;;;;;5051744;28;20021;-65
2022/04/15 07:02:28;;;;;;;3.20;2.30;;;14.40;58.30;;;;;;5052848;28;20364;-64
2022/04/15 07:04:53;;;;;;;3.35;2.30;;;14.50;58.40;;;;;;5052942;28;20420;-63
2022/04/15 07:07:19;;;;;;;2.22;2.00;;;14.50;58.30;;;;;;5052977;28;20037;-65
2022/04/15 07:09:45;;;;;;;2.83;2.22;;;14.50;58.30;;;;;;5052982;28;20503;-68
2022/04/15 07:12:10;;;;;;;2.13;1.92;;;14.50;58.30;;;;;;5052855;28;20035;-65
2022/04/15 07:14:36;;;;;;;3.50;2.22;;;14.60;58.30;;;;;;5051639;28;20029;-66
2022/04/15 07:17:02;;;;;;;2.25;2.05;;;14.60;58.30;;;;;;5051215;28;20021;-65
2022/04/15 07:19:28;;;;;;;3.00;2.33;;;14.60;58.20;;;;;;5052997;28;20055;-68
2022/04/15 07:21:54;;;;;;;2.97;2.20;;;14.60;58.20;;;;;;5053132;28;20032;-66
2022/04/15 07:24:20;;;;;;;2.25;2.03;;;14.70;58.20;;;;;;5045065;28;20104;-66
2022/04/15 07:26:46;;;;;;;2.78;2.20;;;14.70;58.10;;;;;;5041165;28;20374;-66
2022/04/15 07:29:11;;;;;;;2.38;1.90;;;14.70;58.10;;;;;;5036140;28;20139;-65
2022/04/15 07:31:38;;;;;;;3.10;2.15;;;14.70;58.10;;;;;;5049961;28;20033;-66
2022/04/15 07:34:06;;;;;;;3.15;2.40;;;14.70;58.10;;;;;;5050840;28;20048;-66
2022/04/15 07:36:42;;;;;;;2.78;1.98;;;14.80;58.00;;;;;;5052574;28;20426;-65
2022/04/15 07:39:10;;;;;;;3.13;2.10;;;14.80;58.00;;;;;;5052519;28;20416;-66
2022/04/15 07:41:37;;;;;;;2.33;1.90;;;14.80;58.00;;;;;;5052494;28;20025;-67
2022/04/15 07:44:08;;;;;;;2.67;2.15;;;14.80;58.00;;;;;;5052626;28;20055;-64
2022/04/15 07:46:35;;;;;;;2.80;2.03;;;14.80;58.00;;;;;;5052599;28;20403;-64
2022/04/15 07:49:01;;;;;;;2.65;2.00;;;14.80;58.00;;;;;;5052405;28;20037;-64
2022/04/15 07:51:27;;;;;;;2.85;2.05;;;14.90;58.00;;;;;;5052506;28;20029;-64
2022/04/15 07:53:53;;;;;;;2.80;2.20;;;14.90;57.90;;;;;;5052599;28;20116;-65
2022/04/15 07:56:18;;;;;;;2.72;1.80;;;14.90;57.90;;;;;;5051215;28;20432;-65
2022/04/15 07:58:44;;;;;;;2.75;1.98;;;14.90;57.90;;;;;;5052314;28;20103;-65
2022/04/15 08:01:10;;;;;;;2.20;2.00;;;14.90;57.90;;;;;;5055643;28;20405;-65
2022/04/15 08:03:36;;;;;;;2.85;2.13;;;14.90;57.90;;;;;;5056281;28;20355;-65
2022/04/15 08:06:03;;;;;;;2.50;2.10;;;14.90;57.90;;;;;;5056533;28;20051;-65
2022/04/15 08:08:29;;;;;;;2.72;1.95;;;14.90;57.90;;;;;;5056217;28;20093;-65
2022/04/15 08:10:56;;;;;;;2.53;1.70;;;15.00;57.90;;;;;;5055979;28;20100;-65
2022/04/15 08:13:22;;;;;;;2.67;2.10;;;15.00;57.90;;;;;;5055471;28;20041;-66
2022/04/15 08:15:53;;;;;;;3.05;2.10;;;15.00;57.90;;;;;;5054869;28;20441;-65
2022/04/15 08:18:22;;;;;;;2.75;2.25;;;15.00;57.90;;;;;;5055979;28;20032;-65
2022/04/15 08:20:50;;;;;;;2.17;1.90;;;15.00;57.80;;;;;;5055715;28;20356;-66
2022/04/15 08:23:19;;;;;;;2.25;1.90;;;15.00;57.80;;;;;;5055679;28;20024;-66
2022/04/15 08:25:45;;;;;;;3.25;2.15;;;15.00;57.80;;;;;;5054355;28;20488;-66
2022/04/15 08:28:12;;;;;;;2.30;2.10;;;15.10;57.80;;;;;;5055693;28;20048;-64
2022/04/15 08:30:38;;;;;;;2.40;1.90;;;15.10;57.80;;;;;;5055839;28;20033;-64
2022/04/15 08:33:06;;;;;;;2.58;2.00;;;15.10;57.70;;;;;;5055287;28;20035;-65
2022/04/15 08:35:32;;;;;;;3.17;2.15;;;15.10;57.70;;;;;;5055394;28;20083;-66
2022/04/15 08:37:58;;;;;;;2.75;2.20;;;15.10;57.70;;;;;;5055490;28;20021;-65
2022/04/15 08:40:27;;;;;;;2.65;2.00;;;15.10;57.70;;;;;;5055021;28;20108;-65
2022/04/15 08:42:53;;;;;;;2.72;2.03;;;15.20;57.70;;;;;;5055610;28;20033;-65
2022/04/15 08:45:25;;;;;;;2.63;1.70;;;15.20;57.70;;;;;;5055417;28;20070;-65
2022/04/15 08:47:57;;;;;;;2.35;1.80;;;15.20;57.60;;;;;;5055323;28;20174;-65
2022/04/15 08:50:24;;;;;;;2.50;2.05;;;15.20;57.60;;;;;;5053804;28;20025;-65
2022/04/15 08:53:08;;;;;;;1.92;1.75;;;15.20;58.20;;;;;;5053788;28;20037;-66
2022/04/15 08:55:34;;;;;;;3.13;2.00;;;15.20;57.50;;;;;;5055142;28;20104;-65
2022/04/15 08:58:00;;;;;;;2.17;1.98;;;15.30;57.60;;;;;;5054905;28;20121;-65
2022/04/15 09:00:27;;;;;;;2.10;1.90;;;15.30;57.60;;;;;;5053557;28;20044;-65
2022/04/15 09:02:54;;;;;;;2.28;2.03;;;15.30;57.50;;;;;;5055012;28;20036;-65
2022/04/15 09:05:22;;;;;;;2.55;2.10;;;15.30;57.50;;;;;;5054978;28;20170;-66
2022/04/15 09:07:48;;;;;;;2.72;2.00;;;15.30;57.50;;;;;;5053353;28;20063;-66
2022/04/15 09:10:16;;;;;;;2.90;2.13;;;15.30;57.50;;;;;;5055118;28;20041;-65
2022/04/15 09:12:43;;;;;;;2.05;1.73;;;15.30;57.40;;;;;;5054829;28;20029;-65
2022/04/15 09:15:11;;;;;;;2.85;2.10;;;15.40;57.40;;;;;;5053472;28;20021;-65
2022/04/15 09:17:39;;;;;;;2.95;2.00;;;15.40;57.40;;;;;;5054709;28;20025;-65
2022/04/15 09:20:07;;;;;;;2.60;1.95;;;15.40;57.40;;;;;;5054469;28;20029;-65
2022/04/15 09:22:32;;;;;;;2.47;2.00;;;15.40;57.30;;;;;;5053793;28;20029;-65
2022/04/15 09:24:59;;;;;;;2.17;1.80;;;15.40;57.40;;;;;;5054410;28;20381;-65
2022/04/15 09:27:26;;;;;;;1.85;1.73;;;15.50;57.40;;;;;;5054639;28;20025;-65
2022/04/15 09:29:54;;;;;;;2.20;1.80;;;15.50;57.40;;;;;;5054634;28;20025;-64
2022/04/15 09:32:22;;;;;;;2.35;1.95;;;15.50;57.30;;;;;;5054181;28;20114;-64
2022/04/15 09:35:03;;;;;;;2.20;2.00;;;15.50;57.30;;;;;;5052968;28;20039;-65
2022/04/15 09:37:42;;;;;;;2.25;2.00;;;15.50;57.20;;;;;;5054336;28;20083;-65
2022/04/15 09:40:09;;;;;;;2.10;1.90;;;15.50;57.20;;;;;;5053142;28;20028;-64
2022/04/15 09:42:36;;;;;;;3.15;2.10;;;15.60;57.30;;;;;;5054290;28;20500;-66
2022/04/15 09:45:23;;;;;;;1.58;1.48;;;15.60;57.20;;;;;;5053938;28;20048;-65
2022/04/15 09:47:57;;;;;;;2.25;1.77;;;15.60;57.20;;;;;;5054410;28;20041;-65
2022/04/15 09:50:29;;;;;;;2.30;1.75;;;15.60;57.20;;;;;;5054324;28;20090;-64
2022/04/15 09:53:07;;;;;;;2.70;2.10;;;15.70;57.20;;;;;;5052654;28;20562;-65
2022/04/15 09:55:33;;;;;;;3.10;1.77;;;15.70;57.10;;;;;;5053389;28;20025;-65
2022/04/15 09:58:04;;;;;;;1.83;1.52;;;15.70;57.10;;;;;;5054088;28;20025;-65
2022/04/15 10:00:30;;;;;;;3.03;2.10;;;15.70;57.10;;;;;;5053845;28;20033;-66
2022/04/15 10:02:57;;;;;;;1.85;1.65;;;15.70;57.10;;;;;;5054067;28;20024;-65
2022/04/15 10:05:23;;;;;;;2.20;2.00;;;15.80;57.10;;;;;;5054132;28;20032;-65
2022/04/15 10:07:49;;;;;;;2.20;1.90;;;15.80;57.10;;;;;;5053980;28;20425;-65
2022/04/15 10:10:16;;;;;;;2.05;1.85;;;15.80;57.10;;;;;;5052660;28;20037;-66
2022/04/15 10:12:43;;;;;;;2.53;1.90;;;15.80;57.00;;;;;;5054258;28;20520;-66
2022/04/15 10:15:10;;;;;;;2.53;1.90;;;15.80;57.00;;;;;;5053293;28;20021;-65
2022/04/15 10:17:39;;;;;;;2.00;1.80;;;15.80;56.90;;;;;;5052094;28;20391;-66
2022/04/15 10:20:06;;;;;;;2.25;1.95;;;15.90;56.90;;;;;;5053480;28;20034;-65
2022/04/15 10:22:32;;;;;;;1.95;1.75;;;15.90;56.90;;;;;;5052767;28;20442;-65
2022/04/15 10:24:58;;;;;;;2.40;2.00;;;15.90;56.90;;;;;;5053582;28;20037;-65
2022/04/15 10:27:30;;;;;;;1.95;1.77;;;15.90;56.90;;;;;;5053172;28;20383;-66
2022/04/15 10:30:18;;;;;;;1.92;1.70;;;16.00;56.90;;;;;;5052294;28;20032;-65
2022/04/15 10:32:49;;;;;;;2.20;1.90;;;16.00;56.90;;;;;;5053393;28;20140;-66
2022/04/15 10:35:27;;;;;;;2.35;1.90;;;16.00;56.80;;;;;;5052898;28;20033;-65
2022/04/15 10:38:10;;;;;;;2.22;1.98;;;16.00;56.80;;;;;;5053107;28;20032;-65
2022/04/15 10:40:36;;;;;;;1.83;1.65;;;16.10;56.80;;;;;;5053282;28;20064;-66
2022/04/15 10:43:25;;;;;;;2.15;1.83;;;16.10;56.80;;;;;;5052887;28;20036;-65
2022/04/15 10:46:10;;;;;;;2.08;1.60;;;16.10;57.30;;;;;;5053271;28;20467;-65
2022/04/15 10:48:37;;;;;;;2.08;1.75;;;16.10;56.70;;;;;;5052714;28;20474;-65
2022/04/15 10:51:25;;;;;;;2.05;1.80;;;16.20;56.70;;;;;;5052149;28;20137;-66
2022/04/15 10:53:54;;;;;;;1.98;1.80;;;16.20;56.60;;;;;;5052723;28;20433;-66
2022/04/15 10:56:21;;;;;;;2.00;1.80;;;16.20;56.70;;;;;;5053413;28;20032;-65
2022/04/15 11:01:51;;;;;;;1.80;1.70;;;16.30;57.20;;;;;;5052583;28;20103;-66
2022/04/15 11:04:24;;;;;;;2.03;1.80;;;16.30;56.60;;;;;;5052471;28;20116;-65
2022/04/15 11:06:51;;;;;;;1.48;1.38;;;16.30;56.50;;;;;;5053043;28;20036;-65
2022/04/15 11:09:21;;;;;;;2.17;1.75;;;16.40;56.60;;;;;;5052688;28;20496;-65
2022/04/15 11:11:51;;;;;;;1.70;1.60;;;16.40;56.50;;;;;;5051450;28;20028;-66
2022/04/15 11:14:17;;;;;;;1.88;1.70;;;16.40;56.50;;;;;;5052653;28;20025;-65
2022/04/15 11:16:48;;;;;;;2.05;1.60;;;16.40;56.50;;;;;;5052417;28;20060;-65
2022/04/15 11:19:26;;;;;;;2.25;1.70;;;16.50;56.50;;;;;;5052641;28;20025;-65
2022/04/15 11:21:54;;;;;;;1.75;1.52;;;16.50;56.50;;;;;;5052771;28;20391;-65
2022/04/15 11:24:28;;;;;;;2.30;1.75;;;16.50;56.50;;;;;;5051285;28;20490;-66
2022/04/15 11:27:01;;;;;;;2.40;1.90;;;16.50;56.40;;;;;;5052736;28;20032;-65
2022/04/15 11:29:31;;;;;;;2.60;1.75;;;16.50;56.30;;;;;;5052418;28;20056;-65
2022/04/15 11:31:59;;;;;;;1.65;1.55;;;16.60;56.30;;;;;;5052861;28;20466;-65
2022/04/15 11:34:26;;;;;;;2.08;1.88;;;16.60;56.30;;;;;;5055667;28;20029;-65
2022/04/15 11:36:58;;;;;;;1.75;1.60;;;16.60;56.30;;;;;;5057156;28;20478;-64
2022/04/15 11:39:25;;;;;;;1.70;1.60;;;16.60;56.30;;;;;;5057129;28;20025;-65
2022/04/15 11:41:53;;;;;;;2.22;1.90;;;16.60;56.20;;;;;;5055336;28;20375;-65
2022/04/15 11:44:20;;;;;;;1.67;1.58;;;16.70;56.20;;;;;;5056836;28;20037;-65
2022/04/15 11:46:49;;;;;;;2.90;1.75;;;16.70;56.20;;;;;;5055687;28;20065;-64
2022/04/15 11:49:19;;;;;;;1.95;1.80;;;16.70;56.20;;;;;;5056738;28;20053;-65
2022/04/15 11:51:55;;;;;;;3.08;1.77;;;16.70;56.10;;;;;;5055536;28;20040;-66
2022/04/15 11:54:30;;;;;;;1.80;1.55;;;16.80;56.80;;;;;;5056632;28;20083;-65
2022/04/15 11:56:57;;;;;;;1.85;1.70;;;16.80;56.10;;;;;;5055435;28;20467;-65
2022/04/15 11:59:24;;;;;;;1.83;1.73;;;16.80;56.10;;;;;;5056552;28;20047;-65
2022/04/15 12:01:51;;;;;;;1.98;1.73;;;16.80;56.10;;;;;;5056584;28;20032;-65
2022/04/15 12:04:17;;;;;;;2.38;1.55;;;16.80;56.00;;;;;;5056662;28;20033;-65
2022/04/15 12:06:43;;;;;;;1.83;1.58;;;16.90;56.10;;;;;;5056300;28;20124;-65
2022/04/15 12:09:16;;;;;;;1.60;1.50;;;16.90;56.00;;;;;;5056567;28;20356;-65
2022/04/15 12:11:42;;;;;;;1.98;1.70;;;16.90;56.00;;;;;;5054907;28;20077;-65
2022/04/15 12:14:09;;;;;;;1.55;1.35;;;17.00;56.00;;;;;;5056460;28;20067;-65
2022/04/15 12:16:38;;;;;;;2.10;1.70;;;17.00;56.00;;;;;;5056251;28;20033;-65
2022/04/15 12:19:05;;;;;;;2.25;1.80;;;17.00;56.00;;;;;;5056295;28;20057;-65
2022/04/15 12:21:32;;;;;;;1.50;1.40;;;17.00;55.90;;;;;;5056155;28;20574;-65
2022/04/15 12:24:03;;;;;;;2.05;1.70;;;17.10;55.90;;;;;;5054782;28;20486;-64
2022/04/15 12:26:43;;;;;;;2.08;1.75;;;17.10;55.80;;;;;;5054759;28;20029;-64
2022/04/15 12:31:53;;;;;;;1.88;1.70;;;17.20;55.80;;;;;;5055709;28;20391;-64
2022/04/15 12:34:31;;;;;;;1.90;1.70;;;17.20;55.80;;;;;;5054616;28;20033;-65
2022/04/15 12:36:57;;;;;;;2.20;1.60;;;17.30;55.70;;;;;;5054729;28;20040;-65
2022/04/15 12:39:23;;;;;;;2.05;1.70;;;17.30;55.70;;;;;;5055876;28;20471;-64
2022/04/15 12:41:49;;;;;;;2.20;1.80;;;17.40;55.70;;;;;;5055849;28;20033;-64
2022/04/15 12:44:29;;;;;;;2.15;1.90;;;17.40;55.60;;;;;;5055639;28;20106;-65
2022/04/15 12:47:02;;;;;;;1.95;1.60;;;17.50;55.60;;;;;;5054557;28;20036;-64
2022/04/15 12:49:30;;;;;;;1.70;1.60;;;17.50;55.50;;;;;;5055982;28;20045;-64
2022/04/15 12:52:16;;;;;;;1.70;1.60;;;17.60;55.50;;;;;;5055611;28;20052;-65
2022/04/15 12:55:02;;;;;;;2.10;1.70;;;17.70;55.40;;;;;;5055155;28;20033;-65
2022/04/15 12:57:41;;;;;;;2.20;1.77;;;17.80;55.40;;;;;;5055706;28;20316;-65